Time;durP1;ratioP1;P1;durP2;ratioP2;P2;SDS_P1;SDS_P2;PMS_P1;PMS_P2;Temp;Humidity;BMP_temperature;BMP_pressure;BME280_temperature;BME280_humidity;BME280_pressure;Samples;Min_cycle;Max_cycle;Signal;HPM_P1;HPM_P2
2023/04/25 11:51:00;;;;;;;2.22;1.00;;;9.60;98.80;;;;;;5107645;27;20321;-61
2023/04/25 11:53:28;;;;;;;4.80;1.25;;;9.70;97.90;;;;;;5109152;28;20560;-61
2023/04/25 11:55:53;;;;;;;3.58;1.27;;;9.80;95.60;;;;;;5107221;28;20073;-62
2023/04/25 11:58:19;;;;;;;2.88;1.10;;;9.90;93.90;;;;;;5108692;28;20024;-62
2023/04/25 12:00:45;;;;;;;2.97;1.20;;;10.10;89.80;;;;;;5108848;28;20109;-62
2023/04/25 12:03:10;;;;;;;6.50;1.30;;;10.20;91.10;;;;;;5108520;28;20027;-61
2023/04/25 12:05:37;;;;;;;2.92;0.90;;;10.10;91.30;;;;;;5108076;28;20024;-61
2023/04/25 12:08:16;;;;;;;3.75;1.20;;;10.10;91.90;;;;;;5108234;28;20030;-62
2023/04/25 12:10:44;;;;;;;5.28;1.15;;;10.00;92.50;;;;;;5106712;28;20034;-63
2023/04/25 12:13:24;;;;;;;2.63;1.23;;;10.20;87.70;;;;;;5106953;28;20471;-62
2023/04/25 12:15:50;;;;;;;2.42;1.15;;;10.40;86.30;;;;;;5108016;28;20106;-62
2023/04/25 12:18:20;;;;;;;4.38;1.20;;;10.70;89.40;;;;;;5106951;28;20122;-61
2023/04/25 12:20:46;;;;;;;5.43;1.30;;;10.80;85.80;;;;;;5107325;28;20468;-62
2023/04/25 12:23:12;;;;;;;4.28;1.27;;;10.80;81.70;;;;;;5107543;28;20032;-62
2023/04/25 12:25:40;;;;;;;3.70;1.10;;;10.60;82.40;;;;;;5107385;28;20019;-62
2023/04/25 12:28:15;;;;;;;3.40;1.02;;;10.50;84.50;;;;;;5107893;28;20090;-62
2023/04/25 12:30:57;;;;;;;3.65;1.25;;;10.40;85.80;;;;;;5107610;28;20043;-62
2023/04/25 12:33:23;;;;;;;6.80;1.85;;;10.40;86.70;;;;;;5107229;28;20027;-63
2023/04/25 12:35:48;;;;;;;3.53;1.20;;;10.40;87.90;;;;;;5108045;28;20024;-62
2023/04/25 12:38:31;;;;;;;11.13;1.35;;;10.40;85.20;;;;;;5107814;28;20020;-62
2023/04/25 12:40:59;;;;;;;4.85;1.40;;;10.50;85.90;;;;;;5106485;28;20024;-62
2023/04/25 12:43:25;;;;;;;3.25;1.17;;;10.50;86.60;;;;;;5107407;28;20102;-62
2023/04/25 12:45:51;;;;;;;5.57;1.35;;;10.70;89.40;;;;;;5106878;28;20512;-63
2023/04/25 12:48:17;;;;;;;7.50;2.30;;;10.90;90.30;;;;;;5107487;28;20035;-62
2023/04/25 12:50:44;;;;;;;4.00;1.00;;;11.00;90.10;;;;;;5106104;28;20054;-62
2023/04/25 12:53:10;;;;;;;2.10;0.90;;;10.70;89.30;;;;;;5106644;28;20030;-62
2023/04/25 12:55:35;;;;;;;2.38;1.15;;;10.40;89.80;;;;;;5106855;28;20020;-62
2023/04/25 12:58:01;;;;;;;3.35;1.20;;;10.10;89.00;;;;;;5106929;28;20073;-62
2023/04/25 13:00:27;;;;;;;4.38;1.20;;;10.00;87.90;;;;;;5103577;28;20016;-62
2023/04/25 13:02:52;;;;;;;1.73;0.73;;;10.10;86.70;;;;;;5092355;28;20031;-62
2023/04/25 13:05:18;;;;;;;3.35;1.20;;;10.30;83.50;;;;;;5093689;28;20020;-62
2023/04/25 13:07:44;;;;;;;3.40;1.20;;;10.50;83.70;;;;;;5092911;28;20027;-63
2023/04/25 13:10:11;;;;;;;3.95;1.17;;;10.80;82.00;;;;;;5092800;28;20039;-63
2023/04/25 13:12:36;;;;;;;3.63;0.90;;;11.20;82.40;;;;;;5092850;28;20012;-63
2023/04/25 13:15:03;;;;;;;4.20;1.05;;;11.50;81.80;;;;;;5092795;28;20021;-63
2023/04/25 13:17:28;;;;;;;3.92;0.95;;;11.80;78.80;;;;;;5093344;28;20031;-62
2023/04/25 13:19:54;;;;;;;2.42;0.93;;;11.80;74.20;;;;;;5092962;28;20021;-62
2023/04/25 13:22:20;;;;;;;2.53;1.05;;;11.80;70.80;;;;;;5091812;28;20020;-63
2023/04/25 13:24:46;;;;;;;2.53;0.98;;;11.80;71.30;;;;;;5093464;28;20150;-63
2023/04/25 13:27:12;;;;;;;4.68;1.17;;;11.80;72.70;;;;;;5093257;28;20069;-63
2023/04/25 13:29:40;;;;;;;4.13;1.38;;;11.80;73.20;;;;;;5092232;28;20032;-62
2023/04/25 13:32:06;;;;;;;1.20;0.85;;;11.80;73.50;;;;;;5092392;28;20016;-62
2023/04/25 13:34:32;;;;;;;2.47;0.80;;;11.80;71.70;;;;;;5092887;28;20112;-63
2023/04/25 13:36:58;;;;;;;4.20;1.05;;;11.60;72.70;;;;;;5092164;28;20016;-63
2023/04/25 13:39:23;;;;;;;3.58;1.00;;;11.30;76.10;;;;;;5092752;28;20428;-64
2023/04/25 13:41:49;;;;;;;2.75;1.08;;;11.10;73.70;;;;;;5091932;28;20030;-63
2023/04/25 13:44:15;;;;;;;2.97;1.33;;;10.80;72.80;;;;;;5092421;28;20372;-63
2023/04/25 13:46:40;;;;;;;2.97;1.00;;;10.50;71.30;;;;;;5092690;28;20480;-63
2023/04/25 13:49:06;;;;;;;2.13;0.98;;;10.40;71.00;;;;;;5092374;28;20500;-62
2023/04/25 13:51:32;;;;;;;3.65;1.02;;;10.40;74.00;;;;;;5090411;28;20035;-64
2023/04/25 13:53:57;;;;;;;2.10;1.05;;;10.50;74.60;;;;;;5091445;28;20051;-63
2023/04/25 13:56:23;;;;;;;6.28;1.40;;;10.50;72.80;;;;;;5092530;28;20499;-63
2023/04/25 13:58:51;;;;;;;2.38;0.90;;;10.60;74.20;;;;;;5092008;28;20020;-63
2023/04/25 14:01:17;;;;;;;3.15;0.75;;;10.70;77.40;;;;;;5090889;28;20246;-63
2023/04/25 14:03:42;;;;;;;2.25;1.02;;;11.00;78.60;;;;;;5091341;28;20012;-62
2023/04/25 14:06:08;;;;;;;7.43;1.45;;;11.00;79.40;;;;;;5091036;28;20024;-62
2023/04/25 14:08:34;;;;;;;2.47;1.10;;;10.80;79.10;;;;;;5092094;28;20455;-62
2023/04/25 14:11:00;;;;;;;4.47;1.20;;;10.60;81.70;;;;;;5090823;28;20039;-62
2023/04/25 14:13:26;;;;;;;3.70;1.00;;;10.40;80.80;;;;;;5090981;28;20107;-62
2023/04/25 14:15:51;;;;;;;2.80;1.25;;;10.30;80.70;;;;;;5091651;28;20099;-65
2023/04/25 14:18:18;;;;;;;3.60;1.00;;;10.20;81.00;;;;;;5091686;28;20028;-62
2023/04/25 14:20:44;;;;;;;3.13;1.00;;;10.20;82.50;;;;;;5091678;28;20355;-63
2023/04/25 14:23:10;;;;;;;3.90;1.42;;;10.20;84.60;;;;;;5091400;28;20103;-63
2023/04/25 14:25:36;;;;;;;1.48;0.82;;;10.30;84.60;;;;;;5091750;28;20527;-65
2023/04/25 14:28:02;;;;;;;4.18;1.35;;;10.30;84.50;;;;;;5092310;28;20483;-64
2023/04/25 14:30:27;;;;;;;1.60;0.88;;;10.50;83.40;;;;;;5092157;28;20063;-61
2023/04/25 14:32:53;;;;;;;4.30;1.15;;;10.60;82.00;;;;;;5090882;28;20032;-62
2023/04/25 14:35:19;;;;;;;1.90;1.00;;;10.90;81.30;;;;;;5092140;28;20524;-62
2023/04/25 14:37:44;;;;;;;5.78;1.40;;;11.20;80.80;;;;;;5092302;28;20024;-63
2023/04/25 14:40:11;;;;;;;2.83;0.90;;;11.40;77.30;;;;;;5089389;28;20349;-62
2023/04/25 14:42:37;;;;;;;2.00;1.20;;;11.50;74.80;;;;;;5090991;28;20069;-62
2023/04/25 14:45:08;;;;;;;2.22;0.80;;;11.40;75.00;;;;;;5091714;28;20020;-62
2023/04/25 14:47:37;;;;;;;2.67;1.25;;;11.30;74.80;;;;;;5089489;28;20008;-63
2023/04/25 14:50:04;;;;;;;5.65;1.23;;;11.00;75.10;;;;;;5091168;28;20703;-64
2023/04/25 14:52:30;;;;;;;3.00;1.30;;;10.90;77.70;;;;;;5091194;28;20016;-62
2023/04/25 14:54:56;;;;;;;3.55;1.30;;;10.80;75.20;;;;;;5091119;28;20050;-63
2023/04/25 14:57:21;;;;;;;2.35;1.10;;;10.70;73.40;;;;;;5091817;28;20024;-63
2023/04/25 14:59:47;;;;;;;2.40;1.20;;;10.60;74.20;;;;;;5091753;28;20397;-62
2023/04/25 15:02:13;;;;;;;4.35;1.25;;;10.50;77.50;;;;;;5090176;28;20031;-63
2023/04/25 15:04:38;;;;;;;3.17;1.02;;;10.30;78.50;;;;;;5091663;28;20031;-62
2023/04/25 15:07:05;;;;;;;3.90;1.70;;;10.10;79.00;;;;;;5091773;28;20047;-63
2023/04/25 15:09:30;;;;;;;3.33;1.50;;;10.00;81.40;;;;;;5090721;28;20032;-62
2023/04/25 15:12:00;;;;;;;3.47;1.02;;;9.90;82.00;;;;;;5090808;28;20024;-62
2023/04/25 15:14:26;;;;;;;3.42;0.98;;;9.90;82.20;;;;;;5089478;28;20027;-60
2023/04/25 15:16:51;;;;;;;4.78;1.30;;;10.00;83.40;;;;;;5089990;28;20025;-62
2023/04/25 15:19:17;;;;;;;4.57;1.10;;;10.50;84.50;;;;;;5088826;28;20032;-62
2023/04/25 15:21:42;;;;;;;3.22;1.40;;;10.90;80.20;;;;;;5077982;28;20111;-60
2023/04/25 15:24:08;;;;;;;3.80;1.30;;;10.90;79.30;;;;;;5078797;28;20127;-63
2023/04/25 15:26:34;;;;;;;2.45;1.00;;;10.70;77.80;;;;;;5078209;28;20116;-62
2023/04/25 15:28:59;;;;;;;4.07;1.23;;;10.60;78.90;;;;;;5085614;28;20035;-65
2023/04/25 15:31:25;;;;;;;3.80;1.38;;;10.50;80.40;;;;;;5088746;28;20039;-63
2023/04/25 15:33:51;;;;;;;4.45;1.15;;;10.70;81.10;;;;;;5089462;28;20506;-66
2023/04/25 15:36:18;;;;;;;4.63;1.20;;;10.70;81.20;;;;;;5090155;28;20028;-62
2023/04/25 15:38:44;;;;;;;4.68;1.98;;;10.60;81.20;;;;;;5088388;28;20032;-61
2023/04/25 15:41:10;;;;;;;4.85;1.35;;;10.80;82.30;;;;;;5088553;28;20039;-62
2023/04/25 15:43:37;;;;;;;3.38;1.20;;;11.50;77.00;;;;;;5089416;28;20027;-62
2023/04/25 15:46:04;;;;;;;2.15;0.80;;;12.00;76.20;;;;;;5090774;28;20028;-60
2023/04/25 15:48:31;;;;;;;5.80;1.45;;;12.70;75.00;;;;;;5090368;28;20047;-60
2023/04/25 15:50:57;;;;;;;6.95;1.52;;;13.20;69.90;;;;;;5088829;28;20392;-60
2023/04/25 15:53:22;;;;;;;1.88;0.90;;;13.60;67.80;;;;;;5090695;28;20020;-61
2023/04/25 15:55:48;;;;;;;5.15;1.60;;;13.20;66.50;;;;;;5089608;28;20028;-59
2023/04/25 15:58:13;;;;;;;3.15;1.23;;;12.50;66.10;;;;;;5090442;28;20021;-60
2023/04/25 16:00:39;;;;;;;3.15;1.17;;;12.10;68.40;;;;;;5090662;28;20035;-61
2023/04/25 16:03:06;;;;;;;3.70;1.15;;;12.50;69.50;;;;;;5090214;28;20020;-60
2023/04/25 16:05:31;;;;;;;2.30;0.80;;;13.40;66.10;;;;;;5088009;28;20184;-61
2023/04/25 16:07:57;;;;;;;2.70;1.27;;;14.50;61.90;;;;;;5090932;28;20032;-61
2023/04/25 16:10:23;;;;;;;4.72;1.48;;;15.40;61.80;;;;;;5090862;28;20052;-63
2023/04/25 16:12:49;;;;;;;1.73;0.75;;;16.00;58.30;;;;;;5089117;28;20441;-59
2023/04/25 16:15:16;;;;;;;2.38;1.00;;;16.30;56.20;;;;;;5084945;28;20142;-61
2023/04/25 16:17:41;;;;;;;1.98;0.80;;;16.50;56.20;;;;;;5089531;28;20012;-61
2023/04/25 16:20:08;;;;;;;3.38;1.02;;;16.30;53.90;;;;;;5090369;28;20049;-64
2023/04/25 16:22:38;;;;;;;2.08;1.00;;;15.10;54.40;;;;;;5089947;28;20016;-62
2023/04/25 16:25:04;;;;;;;6.55;1.27;;;13.90;57.40;;;;;;5087913;28;20040;-62
2023/04/25 16:27:30;;;;;;;2.67;0.93;;;13.10;60.60;;;;;;5090649;28;20483;-62
2023/04/25 16:29:56;;;;;;;2.50;1.00;;;12.70;62.30;;;;;;5089402;28;20060;-62
2023/04/25 16:32:21;;;;;;;5.80;1.10;;;12.70;60.80;;;;;;5089139;28;20017;-60
2023/04/25 16:34:47;;;;;;;5.93;1.17;;;12.50;63.70;;;;;;5089728;28;20020;-63
2023/04/25 16:37:12;;;;;;;2.83;1.10;;;13.00;63.80;;;;;;5092338;28;20023;-60
2023/04/25 16:39:38;;;;;;;5.53;1.40;;;13.60;61.00;;;;;;5092940;28;20408;-60
2023/04/25 16:42:04;;;;;;;1.60;0.90;;;14.00;57.70;;;;;;5092706;28;20024;-64
2023/04/25 16:44:30;;;;;;;2.28;1.20;;;14.30;56.50;;;;;;5093882;28;20020;-62
2023/04/25 16:46:55;;;;;;;2.55;0.93;;;14.50;56.20;;;;;;5093031;28;20529;-63
2023/04/25 16:49:21;;;;;;;4.78;1.30;;;14.70;55.70;;;;;;5093411;28;20252;-62
2023/04/25 16:51:46;;;;;;;4.35;1.20;;;14.30;55.90;;;;;;5093017;28;20032;-62
2023/04/25 16:54:12;;;;;;;2.85;0.95;;;13.60;58.30;;;;;;5093093;28;20024;-61
2023/04/25 16:56:37;;;;;;;6.15;1.00;;;12.80;59.70;;;;;;5093755;28;20555;-62
2023/04/25 16:59:03;;;;;;;3.05;1.15;;;12.00;61.90;;;;;;5093342;28;20036;-62
2023/04/25 17:01:29;;;;;;;2.55;1.08;;;11.30;63.60;;;;;;5092511;28;20065;-62
2023/04/25 17:03:55;;;;;;;3.47;1.20;;;10.90;66.10;;;;;;5093067;28;20100;-61
2023/04/25 17:06:21;;;;;;;3.78;1.20;;;10.60;68.20;;;;;;5093732;28;20043;-63
2023/04/25 17:08:47;;;;;;;5.15;1.33;;;10.40;69.20;;;;;;5082160;28;20464;-61
2023/04/25 17:11:12;;;;;;;3.38;1.35;;;10.30;69.30;;;;;;5092789;28;20028;-62
2023/04/25 17:13:38;;;;;;;5.38;1.27;;;10.30;70.50;;;;;;5092056;28;20016;-63
2023/04/25 17:16:04;;;;;;;3.47;1.20;;;10.20;70.90;;;;;;5092301;28;20047;-61
2023/04/25 17:18:31;;;;;;;4.18;1.50;;;10.00;70.30;;;;;;5093525;28;20384;-62
2023/04/25 17:20:57;;;;;;;3.55;1.25;;;10.00;71.00;;;;;;5090513;28;20062;-62
2023/04/25 17:23:22;;;;;;;5.90;1.48;;;9.90;71.50;;;;;;5093021;28;20428;-62
2023/04/25 17:25:49;;;;;;;3.35;1.40;;;9.90;70.40;;;;;;5093258;28;20045;-64
2023/04/25 17:28:15;;;;;;;5.85;1.77;;;10.00;71.20;;;;;;5092584;28;20365;-61
2023/04/25 17:30:41;;;;;;;4.45;1.10;;;10.60;71.20;;;;;;5093353;28;20119;-63
2023/04/25 17:33:07;;;;;;;3.28;1.23;;;11.10;71.10;;;;;;5091980;28;20543;-66
2023/04/25 17:35:33;;;;;;;2.55;1.10;;;12.00;68.90;;;;;;5093361;28;20480;-62
2023/04/25 17:37:59;;;;;;;2.35;0.90;;;12.30;67.10;;;;;;5087536;28;20099;-62
2023/04/25 17:40:25;;;;;;;4.70;1.10;;;12.80;63.90;;;;;;5089717;28;20487;-61
2023/04/25 17:42:51;;;;;;;3.80;1.00;;;13.20;62.50;;;;;;5090154;28;20028;-62
2023/04/25 17:45:17;;;;;;;3.03;0.88;;;13.40;59.60;;;;;;5090734;28;20374;-63
2023/04/25 17:47:43;;;;;;;5.25;1.27;;;13.40;59.60;;;;;;5089925;28;20568;-62
2023/04/25 17:50:09;;;;;;;2.63;1.10;;;13.40;58.90;;;;;;5091050;28;20072;-62
2023/04/25 17:52:35;;;;;;;1.80;0.90;;;13.10;59.70;;;;;;5091997;28;20446;-62
2023/04/25 17:55:00;;;;;;;3.33;1.02;;;12.50;61.00;;;;;;5091233;28;20082;-63
2023/04/25 17:57:26;;;;;;;2.88;0.93;;;12.10;61.30;;;;;;5091957;28;20020;-63
2023/04/25 17:59:52;;;;;;;4.50;1.30;;;11.50;62.70;;;;;;5090413;28;20462;-62
2023/04/25 18:02:18;;;;;;;5.55;1.50;;;11.00;64.50;;;;;;5091478;28;20119;-62
2023/04/25 18:04:45;;;;;;;2.35;1.23;;;10.50;66.10;;;;;;5092018;28;20107;-65
2023/04/25 18:07:11;;;;;;;3.28;1.23;;;10.00;67.20;;;;;;5091597;28;20024;-65
2023/04/25 18:09:37;;;;;;;4.15;1.83;;;9.80;69.30;;;;;;5091326;28;20040;-64
2023/04/25 18:12:02;;;;;;;3.30;1.23;;;9.50;71.00;;;;;;5090707;28;20019;-63
2023/04/25 18:14:28;;;;;;;5.68;2.10;;;9.40;72.30;;;;;;5091793;28;20032;-65
2023/04/25 18:16:54;;;;;;;6.30;1.50;;;9.20;72.80;;;;;;5091425;28;20028;-65
2023/04/25 18:19:20;;;;;;;2.65;1.13;;;9.10;73.60;;;;;;5091377;28;20028;-62
2023/04/25 18:21:53;;;;;;;4.03;1.25;;;9.00;74.40;;;;;;5091927;28;20075;-63
2023/04/25 18:24:23;;;;;;;4.88;1.30;;;8.90;74.90;;;;;;5091337;28;20028;-64
2023/04/25 18:26:49;;;;;;;3.95;1.35;;;8.80;75.90;;;;;;5091786;28;20085;-63
2023/04/25 18:29:16;;;;;;;3.75;1.20;;;8.70;76.70;;;;;;5091381;28;20028;-63
2023/04/25 18:31:43;;;;;;;5.40;1.33;;;8.60;77.60;;;;;;5090919;28;20035;-62
2023/04/25 18:34:09;;;;;;;3.53;1.45;;;8.50;78.20;;;;;;5091722;28;20464;-64
2023/04/25 18:36:36;;;;;;;8.52;1.63;;;8.50;79.00;;;;;;5090776;28;20115;-62
2023/04/25 18:39:04;;;;;;;6.70;1.88;;;8.50;79.90;;;;;;5091670;28;20016;-62
2023/04/25 18:41:30;;;;;;;4.35;1.15;;;8.50;80.70;;;;;;5091253;28;20023;-64
2023/04/25 18:44:01;;;;;;;4.28;1.92;;;8.50;80.90;;;;;;5090444;28;20020;-62
2023/04/25 18:46:33;;;;;;;5.00;1.38;;;8.40;81.00;;;;;;5089860;28;20093;-62
2023/04/25 18:48:59;;;;;;;4.47;1.42;;;8.40;81.70;;;;;;5090965;28;20133;-62
2023/04/25 18:51:30;;;;;;;6.68;1.75;;;8.40;82.50;;;;;;5089352;28;20406;-62
2023/04/25 18:53:56;;;;;;;3.03;1.35;;;8.40;82.80;;;;;;5091258;28;20055;-63
2023/04/25 18:56:24;;;;;;;6.10;1.80;;;8.40;83.40;;;;;;5090914;28;20472;-63
2023/04/25 18:58:50;;;;;;;3.47;1.60;;;8.40;84.00;;;;;;5089667;28;20027;-63
2023/04/25 19:01:17;;;;;;;4.15;1.50;;;8.30;84.30;;;;;;5090880;28;20016;-65
2023/04/25 19:03:43;;;;;;;9.50;2.10;;;8.30;84.70;;;;;;5091159;28;20432;-64
2023/04/25 19:06:09;;;;;;;5.68;1.80;;;8.20;84.80;;;;;;5090231;28;20039;-64
2023/04/25 19:08:35;;;;;;;5.65;1.85;;;8.20;85.60;;;;;;5090657;28;20490;-65
2023/04/25 19:11:01;;;;;;;4.43;1.70;;;8.10;86.30;;;;;;5090953;28;20047;-64
2023/04/25 19:13:30;;;;;;;3.03;1.77;;;8.00;86.50;;;;;;5090310;28;20016;-63
2023/04/25 19:15:56;;;;;;;5.00;1.92;;;8.00;87.60;;;;;;5091058;28;20119;-63
2023/04/25 19:18:23;;;;;;;6.57;2.00;;;8.00;88.90;;;;;;5091298;28;20531;-64
2023/04/25 19:20:50;;;;;;;2.28;1.40;;;8.00;89.60;;;;;;5089874;28;20016;-62
2023/04/25 19:23:15;;;;;;;5.55;2.10;;;7.90;90.10;;;;;;5089407;28;20027;-64
2023/04/25 19:25:41;;;;;;;3.92;1.98;;;7.90;90.30;;;;;;5090319;28;20024;-62
2023/04/25 19:28:10;;;;;;;4.97;2.10;;;8.00;90.50;;;;;;5090582;28;20066;-62
2023/04/25 19:30:36;;;;;;;3.58;1.75;;;7.90;90.50;;;;;;5090586;28;20032;-63
2023/04/25 19:33:02;;;;;;;2.60;1.67;;;7.90;90.60;;;;;;5089858;28;20472;-64
2023/04/25 19:35:31;;;;;;;5.18;2.10;;;7.90;90.80;;;;;;5090777;28;20069;-64
2023/04/25 19:37:57;;;;;;;4.85;1.88;;;8.00;90.90;;;;;;5077915;28;20028;-63
2023/04/25 19:40:22;;;;;;;5.35;2.00;;;8.00;90.80;;;;;;5088598;28;20024;-61
2023/04/25 19:42:48;;;;;;;7.03;2.38;;;8.00;90.80;;;;;;5090632;28;20024;-63
